Time;durP1;ratioP1;P1;durP2;ratioP2;P2;SDS_P1;SDS_P2;PMS_P1;PMS_P2;Temp;Humidity;BMP_temperature;BMP_pressure;BME280_temperature;BME280_humidity;BME280_pressure;Samples;Min_cycle;Max_cycle;Signal;HPM_P1;HPM_P2
2021/09/01 00:02:21;;;;;;;10.27;4.22;;;;;;;15.51;100.00;102758.66;2615026;31;20507;-67
2021/09/01 00:04:49;;;;;;;12.40;4.28;;;;;;;15.49;100.00;102757.91;2615890;36;20618;-66
2021/09/01 00:07:20;;;;;;;13.73;4.45;;;;;;;15.50;100.00;102760.53;2616293;36;20548;-66
2021/09/01 00:09:48;;;;;;;11.20;4.15;;;;;;;15.54;100.00;102755.72;2615627;31;20126;-69
2021/09/01 00:12:16;;;;;;;12.23;4.15;;;;;;;15.52;100.00;102757.69;2616290;36;20106;-68
2021/09/01 00:14:45;;;;;;;11.60;4.07;;;;;;;15.44;100.00;102758.28;2615603;36;20150;-67
2021/09/01 00:17:13;;;;;;;11.45;3.80;;;;;;;15.46;100.00;102759.03;2614792;36;20157;-67
2021/09/01 00:19:41;;;;;;;14.75;4.15;;;;;;;15.45;100.00;102759.16;2615463;31;20126;-67
2021/09/01 00:22:09;;;;;;;13.03;4.27;;;;;;;15.49;100.00;102757.91;2614177;36;20170;-72
2021/09/01 00:24:40;;;;;;;15.25;4.22;;;;;;;15.55;100.00;102752.88;2614666;36;20158;-66
2021/09/01 00:29:49;;;;;;;14.15;4.18;;;;;;;15.41;100.00;102756.69;2614814;36;20042;-67
2021/09/01 00:32:17;;;;;;;13.57;4.63;;;;;;;15.39;100.00;102747.78;2616014;36;20084;-69
2021/09/01 00:34:45;;;;;;;9.13;3.65;;;;;;;15.38;100.00;102750.63;2615630;36;20030;-69
2021/09/01 00:37:13;;;;;;;13.75;4.40;;;;;;;15.46;100.00;102758.16;2615546;36;20164;-70
2021/09/01 00:39:44;;;;;;;10.60;3.75;;;;;;;15.42;100.00;102746.69;2615826;36;20121;-69
2021/09/01 00:42:12;;;;;;;16.65;4.35;;;;;;;15.44;100.00;102757.41;2616502;31;20118;-69
2021/09/01 00:44:41;;;;;;;13.70;4.00;;;;;;;15.44;100.00;102754.72;2616916;36;20205;-70
2021/09/01 00:47:10;;;;;;;9.43;3.60;;;;;;;15.37;100.00;102755.19;2616348;36;20041;-66
2021/09/01 00:49:38;;;;;;;13.43;4.18;;;;;;;15.37;100.00;102755.19;2616197;36;20129;-68
2021/09/01 00:52:07;;;;;;;11.07;4.00;;;;;;;15.40;100.00;102744.09;2613105;36;20038;-66
2021/09/01 00:54:35;;;;;;;13.15;3.90;;;;;;;15.38;100.00;102745.19;2614167;36;20589;-67
2021/09/01 00:57:08;;;;;;;11.82;4.15;;;;;;;15.37;100.00;102747.06;2614875;36;20800;-67
2021/09/01 00:59:41;;;;;;;12.60;4.03;;;;;;;15.38;100.00;102753.34;2617112;36;20034;-66
2021/09/01 01:02:09;;;;;;;12.00;4.03;;;;;;;15.42;100.00;102746.69;2616282;36;20080;-65
2021/09/01 01:04:38;;;;;;;10.27;3.85;;;;;;;15.50;100.00;102746.06;2618120;31;20462;-69
2021/09/01 01:07:07;;;;;;;18.63;4.50;;;;;;;15.37;100.00;102743.47;2616400;36;20622;-66
2021/09/01 01:09:37;;;;;;;13.43;3.95;;;;;;;15.33;100.00;102736.56;2616939;36;20100;-69
2021/09/01 01:12:11;;;;;;;13.13;3.97;;;;;;;15.37;100.00;102744.34;2615798;31;20047;-67
2021/09/01 01:14:41;;;;;;;12.75;3.92;;;;;;;15.44;100.00;102744.72;2615261;36;20031;-67
2021/09/01 01:17:11;;;;;;;12.45;4.05;;;;;;;15.38;100.00;102748.75;2616871;31;20084;-69
2021/09/01 01:19:41;;;;;;;13.27;4.03;;;;;;;15.28;100.00;102750.47;2616937;31;20527;-68
2021/09/01 01:22:11;;;;;;;11.20;4.70;;;;;;;15.26;100.00;102755.16;2616186;36;20026;-70
2021/09/01 01:24:56;;;;;;;8.32;3.50;;;;;;;15.31;100.00;102743.97;2614666;47;20081;-68
2021/09/01 01:27:28;;;;;;;11.15;4.43;;;;;;;15.22;100.00;102745.53;2615693;36;20066;-66
2021/09/01 01:29:59;;;;;;;13.55;4.82;;;;;;;15.20;100.00;102750.25;2617047;36;20050;-69
2021/09/01 01:32:27;;;;;;;11.25;4.20;;;;;;;15.19;100.00;102745.78;2615329;36;20142;-69
2021/09/01 01:34:56;;;;;;;12.20;4.90;;;;;;;15.19;100.00;102751.22;2616229;36;20077;-67
2021/09/01 01:37:24;;;;;;;11.52;4.05;;;;;;;15.20;100.00;102745.66;2616167;36;21388;-69
2021/09/01 01:39:52;;;;;;;9.45;4.20;;;;;;;15.27;100.00;102745.19;2617190;36;20061;-67
2021/09/01 01:42:20;;;;;;;14.30;4.13;;;;;;;15.23;100.00;102741.84;2615351;36;20134;-68
2021/09/01 01:44:51;;;;;;;10.57;3.75;;;;;;;15.28;100.00;102745.06;2616980;36;20058;-64
2021/09/01 01:47:19;;;;;;;12.20;4.07;;;;;;;15.22;100.00;102745.53;2615660;36;20118;-67
2021/09/01 01:49:47;;;;;;;12.90;3.75;;;;;;;15.21;100.00;102750.13;2616555;36;20122;-67
2021/09/01 01:52:16;;;;;;;15.77;4.45;;;;;;;15.20;100.00;102753.81;2615616;36;20031;-66
2021/09/01 01:54:44;;;;;;;9.80;4.05;;;;;;;15.21;100.00;102749.25;2616238;36;20026;-69
2021/09/01 01:57:14;;;;;;;19.98;4.57;;;;;;;15.19;100.00;102751.22;2616937;31;20030;-68
2021/09/01 01:59:42;;;;;;;11.73;3.78;;;;;;;15.21;100.00;102760.13;2615368;36;20049;-66
2021/09/01 02:02:13;;;;;;;15.82;3.85;;;;;;;15.35;100.00;102753.59;2616122;36;20053;-64
2021/09/01 02:04:41;;;;;;;16.02;3.60;;;;;;;15.34;100.00;102750.03;2617304;36;20110;-67
2021/09/01 02:07:09;;;;;;;11.15;3.67;;;;;;;15.23;100.00;102758.13;2616182;36;20178;-66
2021/09/01 02:09:37;;;;;;;14.07;3.97;;;;;;;15.24;100.00;102743.59;2617049;36;20069;-67
2021/09/01 02:12:07;;;;;;;11.77;3.55;;;;;;;15.20;100.00;102755.66;2616540;36;20053;-66
2021/09/01 02:14:35;;;;;;;10.40;3.78;;;;;;;15.17;100.00;102753.19;2615757;36;20034;-66
2021/09/01 02:17:03;;;;;;;10.52;4.07;;;;;;;15.32;100.00;102749.25;2617539;31;20514;-70
2021/09/01 02:19:34;;;;;;;13.38;3.78;;;;;;;15.23;100.00;102747.28;2616580;36;20030;-67
2021/09/01 02:22:02;;;;;;;8.73;3.78;;;;;;;15.18;100.00;102744.94;2615811;36;20114;-66
2021/09/01 02:24:30;;;;;;;21.25;4.65;;;;;;;15.17;100.00;102745.06;2616536;36;20571;-66
2021/09/01 02:26:58;;;;;;;13.07;3.63;;;;;;;15.25;100.00;102745.28;2616049;36;20118;-66
2021/09/01 02:29:27;;;;;;;11.40;3.75;;;;;;;15.21;100.00;102739.25;2615583;36;21447;-67
2021/09/01 02:31:55;;;;;;;8.65;3.67;;;;;;;15.25;100.00;102739.88;2616423;36;20558;-66
2021/09/01 02:34:23;;;;;;;9.38;3.33;;;;;;;15.31;100.00;102744.84;2616127;36;20563;-68
2021/09/01 02:36:54;;;;;;;11.30;4.25;;;;;;;15.22;100.00;102740.13;2615888;36;20065;-66
2021/09/01 02:39:22;;;;;;;13.63;3.45;;;;;;;15.21;100.00;102741.13;2616641;36;20026;-71
2021/09/01 05:57:37;;;;;;;13.10;3.78;;;;;;;15.29;100.00;102771.22;2614646;54;20046;-67
2021/09/01 06:00:09;;;;;;;13.05;4.10;;;;;;;15.20;100.00;102777.38;2616867;36;20030;-70
2021/09/01 06:02:42;;;;;;;13.32;3.97;;;;;;;15.05;100.00;102777.56;2617049;36;20432;-67
2021/09/01 06:05:12;;;;;;;10.43;3.80;;;;;;;15.03;100.00;102779.53;2616688;36;20551;-67
2021/09/01 06:07:52;;;;;;;8.63;4.18;;;;;;;15.13;100.00;102778.81;2616865;36;20074;-66
2021/09/01 06:10:27;;;;;;;8.02;3.47;;;;;;;15.13;100.00;102782.38;2616106;31;20034;-73
2021/09/01 06:13:00;;;;;;;8.65;3.13;;;;;;;15.21;100.00;102781.81;2616224;36;20389;-67
2021/09/01 06:15:28;;;;;;;10.00;4.13;;;;;;;15.11;100.00;102792.50;2616124;36;20539;-67
2021/09/01 06:17:56;;;;;;;11.40;4.20;;;;;;;15.07;100.00;102786.47;2616453;36;20050;-67
2021/09/01 06:20:26;;;;;;;10.18;4.07;;;;;;;15.02;100.00;102787.78;2617348;31;20027;-69
2021/09/01 06:22:55;;;;;;;11.77;3.90;;;;;;;15.06;100.00;102781.13;2617098;31;20118;-67
2021/09/01 06:25:23;;;;;;;10.50;3.92;;;;;;;15.10;100.00;102779.06;2616722;36;20022;-66
2021/09/01 06:27:52;;;;;;;13.77;3.75;;;;;;;15.38;100.00;102781.31;2616600;36;20106;-71
2021/09/01 06:30:23;;;;;;;8.25;3.25;;;;;;;15.59;100.00;102786.94;2616977;36;20038;-67
2021/09/01 06:32:52;;;;;;;11.80;3.78;;;;;;;15.69;100.00;102775.31;2617099;36;20018;-66
2021/09/01 06:35:21;;;;;;;18.92;4.20;;;;;;;15.61;100.00;102781.38;2617188;36;20034;-70
2021/09/01 06:37:50;;;;;;;11.57;4.07;;;;;;;15.78;100.00;102790.91;2616929;31;20118;-67
2021/09/01 06:40:20;;;;;;;11.10;3.75;;;;;;;15.77;100.00;102790.00;2616665;36;20122;-68
2021/09/01 06:42:49;;;;;;;14.57;4.13;;;;;;;15.94;100.00;102802.28;2617082;31;20118;-67
2021/09/01 06:45:17;;;;;;;10.50;3.50;;;;;;;15.92;100.00;102797.94;2616745;36;20077;-67
2021/09/01 06:47:50;;;;;;;12.32;4.68;;;;;;;15.90;100.00;102799.91;2617376;36;20083;-70
2021/09/01 06:50:20;;;;;;;13.30;4.20;;;;;;;16.15;100.00;102804.25;2616454;36;20656;-70
2021/09/01 06:52:50;;;;;;;8.93;3.47;;;;;;;16.15;100.00;102806.06;2616787;36;20114;-67
2021/09/01 06:55:19;;;;;;;11.05;4.40;;;;;;;16.21;100.00;102806.44;2616978;31;20523;-67
2021/09/01 06:57:47;;;;;;;12.90;4.25;;;;;;;16.12;100.00;102820.75;2616923;36;20019;-67
2021/09/01 07:03:16;;;;;;;9.45;3.65;;;;;;;16.20;100.00;102812.00;2614698;36;20073;-67
2021/09/01 07:05:44;;;;;;;13.68;4.20;;;;;;;16.20;100.00;102812.00;2617684;36;20126;-67
2021/09/01 07:08:14;;;;;;;11.57;3.65;;;;;;;16.27;100.00;102810.53;2616313;36;20059;-66
2021/09/01 07:10:42;;;;;;;13.57;3.75;;;;;;;16.27;100.00;102807.81;2617334;36;20035;-67
2021/09/01 07:13:10;;;;;;;10.05;3.75;;;;;;;16.36;100.00;102815.19;2617034;36;20134;-71
2021/09/01 07:15:39;;;;;;;12.95;4.32;;;;;;;16.19;100.00;102813.00;2616937;36;20157;-66
2021/09/01 07:18:07;;;;;;;9.25;3.83;;;;;;;16.17;100.00;102818.56;2616790;36;20110;-70
2021/09/01 07:20:38;;;;;;;10.18;4.13;;;;;;;16.21;100.00;102824.59;2617090;36;20050;-67
2021/09/01 07:23:07;;;;;;;14.52;3.75;;;;;;;16.33;100.00;102812.72;2616538;36;20038;-70
2021/09/01 07:25:36;;;;;;;8.25;3.63;;;;;;;16.37;100.00;102811.50;2616963;36;20030;-68
2021/09/01 07:28:06;;;;;;;10.70;3.42;;;;;;;16.10;100.00;102812.75;2617247;36;20078;-67
2021/09/01 07:30:35;;;;;;;9.30;3.35;;;;;;;16.38;100.00;102815.06;2617404;36;20029;-70
2021/09/01 07:33:03;;;;;;;7.77;3.17;;;;;;;16.52;100.00;102816.63;2616389;36;20125;-69
2021/09/01 07:35:31;;;;;;;11.35;3.45;;;;;;;16.35;100.00;102816.16;2617006;36;20323;-70
2021/09/01 07:38:02;;;;;;;9.07;3.15;;;;;;;16.43;100.00;102813.69;2616917;36;20070;-67
2021/09/01 07:40:30;;;;;;;7.57;3.80;;;;;;;16.46;100.00;102820.75;2617806;31;20519;-68
2021/09/01 07:42:59;;;;;;;9.90;2.97;;;;;;;16.54;100.00;102814.66;2617124;36;20042;-66
2021/09/01 07:45:30;;;;;;;10.55;3.38;;;;;;;16.78;100.00;102825.34;2617703;31;20507;-66
2021/09/01 07:47:58;;;;;;;10.77;3.60;;;;;;;16.73;100.00;102827.59;2616634;36;20022;-70
2021/09/01 07:50:29;;;;;;;10.30;3.50;;;;;;;16.78;100.00;102812.63;2616753;36;20622;-67
2021/09/01 07:52:57;;;;;;;14.27;3.53;;;;;;;16.84;100.00;102826.69;2616687;31;20137;-67
2021/09/01 07:55:29;;;;;;;10.23;3.83;;;;;;;16.67;100.00;102820.81;2617558;36;20174;-70
2021/09/01 07:57:57;;;;;;;8.90;3.38;;;;;;;16.93;100.00;102825.91;2617903;36;20490;-67
2021/09/01 08:00:25;;;;;;;9.03;3.10;;;;;;;16.99;100.00;102825.44;2617533;31;20030;-68
2021/09/01 08:02:54;;;;;;;8.17;3.17;;;;;;;16.81;100.00;102827.78;2617963;36;20172;-70
2021/09/01 08:05:22;;;;;;;10.57;3.20;;;;;;;16.82;100.00;102834.97;2618056;31;20548;-67
2021/09/01 08:07:51;;;;;;;12.75;3.53;;;;;;;16.78;100.00;102839.81;2617582;36;20124;-67
2021/09/01 08:10:20;;;;;;;13.43;3.30;;;;;;;16.89;100.00;102843.53;2617180;36;20060;-67
2021/09/01 08:12:50;;;;;;;14.47;3.73;;;;;;;16.79;100.00;102836.06;2617501;36;20038;-70
2021/09/01 08:15:19;;;;;;;6.22;3.15;;;;;;;16.91;100.00;102844.25;2617722;36;20093;-68
2021/09/01 08:17:47;;;;;;;11.40;3.38;;;;;;;16.77;100.00;102853.53;2617755;36;20051;-71
2021/09/01 08:20:16;;;;;;;9.10;3.00;;;;;;;17.04;100.00;102850.38;2616415;36;20042;-67
2021/09/01 08:22:44;;;;;;;10.82;3.20;;;;;;;17.25;100.00;102849.53;2617342;36;20876;-72
2021/09/01 08:28:02;;;;;;;9.30;3.17;;;;;;;17.42;100.00;102854.38;2615667;54;20038;-68
2021/09/01 08:30:31;;;;;;;11.35;3.85;;;;;;;17.58;100.00;102853.03;2617971;31;20023;-68
2021/09/01 08:32:59;;;;;;;10.63;3.13;;;;;;;17.61;100.00;102858.25;2617173;36;20029;-68
2021/09/01 08:35:27;;;;;;;12.47;3.30;;;;;;;17.78;100.00;102860.34;2617467;36;20022;-70
2021/09/01 08:37:55;;;;;;;7.13;3.10;;;;;;;17.70;100.00;102854.72;2617772;36;20354;-69
2021/09/01 08:40:24;;;;;;;9.47;3.60;;;;;;;17.80;100.00;102861.09;2617870;36;20151;-68
2021/09/01 08:42:52;;;;;;;5.97;3.13;;;;;;;17.84;100.00;102864.38;2616591;36;20030;-68
2021/09/01 08:45:23;;;;;;;7.47;3.03;;;;;;;17.90;100.00;102860.28;2617087;36;20034;-71
2021/09/01 08:47:53;;;;;;;10.85;3.95;;;;;;;18.16;100.00;102871.59;2618202;36;20118;-69
2021/09/01 08:50:21;;;;;;;8.48;3.00;;;;;;;17.89;100.00;102861.25;2617682;36;20129;-70
2021/09/01 08:52:50;;;;;;;12.70;3.27;;;;;;;17.81;100.00;102862.78;2617969;36;20050;-68
2021/09/01 08:55:19;;;;;;;15.13;3.50;;;;;;;18.06;100.00;102863.38;2617719;36;20037;-71
2021/09/01 08:57:47;;;;;;;10.20;3.35;;;;;;;17.75;100.00;102854.31;2617951;36;20030;-69
2021/09/01 09:00:17;;;;;;;9.80;3.10;;;;;;;17.62;100.00;102858.13;2614803;36;20534;-71
2021/09/01 09:02:58;;;;;;;8.60;3.08;;;;;;;17.87;100.00;102855.94;2616562;36;20027;-68
2021/09/01 09:05:34;;;;;;;8.57;3.17;;;;;;;18.04;100.00;102860.78;2617476;36;20121;-68
2021/09/01 09:08:03;;;;;;;9.55;3.10;;;;;;;17.85;100.00;102861.53;2617842;36;20023;-67
2021/09/01 09:10:34;;;;;;;9.00;3.53;;;;;;;17.71;100.00;102859.19;2617483;36;20073;-67
2021/09/01 09:13:05;;;;;;;13.02;3.50;;;;;;;17.62;100.00;102859.94;2618658;31;20448;-68
2021/09/01 09:15:34;;;;;;;9.38;3.08;;;;;;;17.64;100.00;102863.44;2617567;36;20050;-68
2021/09/01 09:18:07;;;;;;;10.65;3.00;;;;;;;17.71;100.00;102864.63;2617703;36;20809;-70
2021/09/01 09:20:37;;;;;;;11.50;3.60;;;;;;;17.79;100.00;102864.78;2617687;36;20026;-72
2021/09/01 09:23:06;;;;;;;12.88;3.30;;;;;;;17.64;100.00;102868.88;2617656;36;20611;-68
2021/09/01 09:25:36;;;;;;;13.52;3.25;;;;;;;17.74;100.00;102869.78;2617524;36;20031;-72
2021/09/01 09:28:06;;;;;;;10.45;3.85;;;;;;;17.49;100.00;102871.94;2617483;36;20031;-68
2021/09/01 09:30:40;;;;;;;10.68;3.10;;;;;;;17.53;100.00;102869.78;2617636;36;20034;-73
2021/09/01 09:33:14;;;;;;;12.18;3.55;;;;;;;17.65;100.00;102866.00;2617550;36;20569;-72
2021/09/01 09:35:55;;;;;;;12.63;4.03;;;;;;;17.97;100.00;102865.06;2617811;36;20018;-69
2021/09/01 09:38:32;;;;;;;10.63;3.17;;;;;;;18.17;100.00;102865.16;2617743;36;22694;-68
2021/09/01 09:41:02;;;;;;;9.38;2.88;;;;;;;18.34;100.00;102871.81;2617623;36;20100;-66
2021/09/01 09:43:31;;;;;;;10.48;2.95;;;;;;;18.41;100.00;102867.53;2617767;36;20026;-67
2021/09/01 09:46:10;;;;;;;7.72;3.03;;;;;;;18.48;100.00;102867.84;2617546;36;20035;-67
2021/09/01 09:48:44;;;;;;;9.30;3.08;;;;;;;18.37;100.00;102872.41;2616542;31;20060;-67
2021/09/01 09:51:14;;;;;;;8.13;2.85;;;;;;;18.11;100.00;102874.75;2616498;36;20033;-68
2021/09/01 09:53:44;;;;;;;10.40;2.88;;;;;;;18.35;100.00;102868.94;2617460;36;20050;-66
2021/09/01 09:56:15;;;;;;;8.77;3.28;;;;;;;18.21;100.00;102872.03;2617841;31;20431;-67
2021/09/01 09:58:46;;;;;;;11.52;3.50;;;;;;;17.99;100.00;102873.97;2617383;36;20025;-67
2021/09/01 10:01:16;;;;;;;9.93;2.97;;;;;;;18.10;100.00;102874.88;2614731;31;20081;-71
2021/09/01 10:03:47;;;;;;;10.88;3.20;;;;;;;18.13;100.00;102871.88;2615323;31;20034;-67
2021/09/01 10:06:18;;;;;;;9.50;2.85;;;;;;;17.98;100.00;102868.66;2613189;36;20565;-66
2021/09/01 10:08:48;;;;;;;9.65;3.20;;;;;;;17.80;100.00;102869.25;2613676;36;20091;-67
2021/09/01 10:11:19;;;;;;;6.28;3.05;;;;;;;17.89;100.00;102877.59;2615677;31;20504;-67
2021/09/01 10:13:49;;;;;;;9.90;2.95;;;;;;;18.09;100.00;102879.44;2615996;36;20077;-72
2021/09/01 10:16:32;;;;;;;8.82;3.38;;;;;;;18.17;100.00;102866.03;2616546;36;20129;-67
2021/09/01 10:19:07;;;;;;;9.57;3.00;;;;;;;18.20;100.00;102875.78;2617369;36;20034;-69
2021/09/01 10:21:39;;;;;;;7.38;2.70;;;;;;;18.33;100.00;102870.06;2617312;36;20022;-66
2021/09/01 10:24:20;;;;;;;6.13;2.67;;;;;;;18.18;100.00;102865.03;2617040;36;20027;-67
2021/09/01 10:27:09;;;;;;;13.18;3.25;;;;;;;18.32;100.00;102868.38;2616774;36;20034;-67
2021/09/01 10:29:49;;;;;;;7.55;2.78;;;;;;;18.42;100.00;102869.25;2617443;31;20556;-72
2021/09/01 10:32:20;;;;;;;8.85;2.63;;;;;;;18.31;100.00;102867.50;2616120;36;20408;-66
2021/09/01 10:34:52;;;;;;;6.05;2.60;;;;;;;18.68;100.00;102868.75;2617115;36;20069;-67
2021/09/01 10:37:39;;;;;;;6.75;2.53;;;;;;;18.90;100.00;102863.09;2617274;36;20125;-70
2021/09/01 10:40:10;;;;;;;10.63;2.35;;;;;;;19.15;100.00;102855.31;2616994;36;20038;-69
2021/09/01 10:42:43;;;;;;;9.50;2.53;;;;;;;19.13;100.00;102853.75;2617365;36;20038;-68
2021/09/01 10:45:14;;;;;;;9.07;2.83;;;;;;;19.68;100.00;102850.34;2617216;36;20034;-68
2021/09/01 10:48:05;;;;;;;9.90;2.75;;;;;;;19.97;100.00;102849.44;2616325;31;20031;-68
2021/09/01 10:50:38;;;;;;;6.65;2.03;;;;;;;19.85;100.00;102852.34;2617709;36;20022;-67
2021/09/01 10:53:11;;;;;;;5.13;2.30;;;;;;;20.00;100.00;102851.88;2615483;36;20073;-70
2021/09/01 10:55:52;;;;;;;8.60;2.75;;;;;;;19.75;100.00;102841.41;2615378;36;20045;-68
2021/09/01 10:58:23;;;;;;;6.30;2.35;;;;;;;20.27;100.00;102846.44;2616817;31;20031;-69
2021/09/01 11:01:02;;;;;;;7.40;2.20;;;;;;;20.45;100.00;102842.84;2616758;36;20022;-70
2021/09/01 11:03:36;;;;;;;5.18;1.83;;;;;;;20.22;100.00;102842.44;2616483;36;20046;-67
2021/09/01 11:06:23;;;;;;;6.57;1.80;;;;;;;20.23;100.00;102839.53;2616431;36;20050;-67
2021/09/01 11:09:03;;;;;;;7.78;2.00;;;;;;;20.15;100.00;102841.31;2615978;36;20055;-67
2021/09/01 11:11:46;;;;;;;5.82;1.77;;;;;;;19.48;100.00;102836.75;2616959;36;20411;-68
2021/09/01 11:14:16;;;;;;;6.93;2.15;;;;;;;19.16;100.00;102840.66;2614129;36;20113;-71
2021/09/01 11:16:45;;;;;;;3.90;1.65;;;;;;;19.43;100.00;102836.31;2615961;36;20080;-68
2021/09/01 11:19:14;;;;;;;4.45;1.85;;;;;;;19.40;100.00;102840.22;2615306;36;20170;-69
2021/09/01 11:21:47;;;;;;;4.63;2.00;;;;;;;19.63;100.00;102836.28;2615292;36;20073;-67
2021/09/01 11:24:18;;;;;;;3.30;1.70;;;;;;;19.71;100.00;102842.75;2612484;36;20129;-67
2021/09/01 11:26:47;;;;;;;4.57;1.75;;;;;;;19.62;100.00;102840.88;2614907;36;20053;-67
2021/09/01 11:29:15;;;;;;;;;;;;;;;19.62;100.00;102846.34;2614953;36;20173;-66
2021/09/01 11:31:53;;;;;;;4.55;1.98;;;;;;;19.59;100.00;102842.03;2615461;36;19941;-67
2021/09/01 11:34:21;;;;;;;4.85;1.70;;;;;;;19.47;100.00;102843.22;2616081;36;20034;-68
2021/09/01 11:36:52;;;;;;;6.05;2.20;;;;;;;19.36;100.00;102846.09;2614776;36;20042;-66
2021/09/01 11:39:20;;;;;;;5.60;2.10;;;;;;;19.62;100.00;102840.88;2615023;36;20034;-66
2021/09/01 11:41:58;;;;;;;6.75;2.22;;;;;;;19.54;100.00;102836.16;2615806;36;20081;-66
2021/09/01 11:44:27;;;;;;;6.07;2.42;;;;;;;19.73;100.00;102839.88;2615122;36;20085;-66
2021/09/01 11:46:55;;;;;;;5.05;2.13;;;;;;;19.63;100.00;102849.94;2615510;36;20117;-66
2021/09/01 11:49:24;;;;;;;5.82;2.35;;;;;;;19.81;100.00;102845.47;2616148;36;20038;-69
2021/09/01 11:51:55;;;;;;;6.43;2.42;;;;;;;19.71;100.00;102850.06;2615596;31;20433;-67
2021/09/01 11:54:23;;;;;;;9.73;2.22;;;;;;;19.76;100.00;102853.22;2614840;36;20030;-67
2021/09/01 11:56:51;;;;;;;6.50;2.13;;;;;;;20.01;100.00;102851.72;2615440;36;20059;-67
2021/09/01 11:59:20;;;;;;;8.13;2.30;;;;;;;20.19;100.00;102848.19;2615757;36;20412;-67
2021/09/01 12:01:53;;;;;;;6.40;2.20;;;;;;;20.25;100.00;102842.13;2614050;36;20027;-69
2021/09/01 12:04:23;;;;;;;7.00;2.10;;;;;;;19.90;100.00;102854.63;2615191;31;20073;-65
2021/09/01 12:06:56;;;;;;;7.25;2.20;;;;;;;19.77;100.00;102855.81;2615251;36;20431;-67
2021/09/01 12:09:28;;;;;;;6.80;2.72;;;;;;;19.86;100.00;102847.75;2614618;36;20122;-71
2021/09/01 12:11:59;;;;;;;8.80;2.45;;;;;;;20.04;100.00;102845.97;2616780;31;20511;-67
2021/09/01 12:14:30;;;;;;;7.07;2.50;;;;;;;19.93;100.00;102844.28;2616073;36;20114;-68
2021/09/01 12:17:16;;;;;;;5.85;2.50;;;;;;;20.23;100.00;102839.53;2616293;36;20064;-67
2021/09/01 12:19:47;;;;;;;7.68;2.55;;;;;;;20.47;100.00;102838.97;2616665;36;20022;-67
2021/09/01 12:22:31;;;;;;;7.25;2.90;;;;;;;20.27;100.00;102835.50;2617957;31;20526;-70
2021/09/01 12:25:04;;;;;;;8.63;2.72;;;;;;;20.38;100.00;102841.78;2613451;36;20040;-67
2021/09/01 12:27:32;;;;;;;4.53;2.50;;;;;;;20.24;100.00;102834.91;2610397;31;20030;-66
2021/09/01 12:30:01;;;;;;;6.68;2.28;;;;;;;20.07;100.00;102833.88;2616322;36;20573;-68
2021/09/01 12:32:29;;;;;;;5.95;2.22;;;;;;;19.89;100.00;102837.38;2616886;31;20447;-69
2021/09/01 12:35:00;;;;;;;5.50;1.90;;;;;;;19.73;100.00;102829.78;2615841;36;20092;-65
2021/09/01 12:37:33;;;;;;;9.00;2.25;;;;;;;19.73;100.00;102837.13;2616041;36;20089;-67
2021/09/01 12:40:03;;;;;;;6.55;2.20;;;;;;;19.71;100.00;102833.66;2616761;36;20525;-67
2021/09/01 12:42:34;;;;;;;7.50;2.35;;;;;;;19.58;100.00;102833.97;2614410;31;20122;-66
2021/09/01 12:45:04;;;;;;;6.00;2.20;;;;;;;19.52;100.00;102827.25;2615655;36;20122;-71
2021/09/01 12:47:33;;;;;;;6.07;2.05;;;;;;;19.48;100.00;102828.56;2616893;36;20077;-67
2021/09/01 12:50:03;;;;;;;9.13;2.70;;;;;;;19.15;100.00;102828.00;2616456;31;20515;-72
2021/09/01 12:52:34;;;;;;;5.80;2.20;;;;;;;19.06;100.00;102834.34;2616028;36;20165;-67
2021/09/01 12:55:03;;;;;;;6.40;1.88;;;;;;;19.31;100.00;102827.44;2615782;36;20030;-69
2021/09/01 12:57:31;;;;;;;4.78;2.10;;;;;;;19.39;100.00;102826.69;2616359;31;20035;-67
2021/09/01 12:59:59;;;;;;;5.18;1.83;;;;;;;19.30;100.00;102833.03;2617218;36;20042;-66
2021/09/01 13:02:27;;;;;;;7.87;2.03;;;;;;;19.35;100.00;102817.94;2616996;36;20050;-71
2021/09/01 13:04:55;;;;;;;2.97;1.83;;;;;;;19.51;100.00;102827.41;2617449;36;20315;-68
2021/09/01 13:07:24;;;;;;;5.40;2.03;;;;;;;19.16;100.00;102829.75;2617173;36;20046;-67
2021/09/01 13:09:54;;;;;;;6.85;2.05;;;;;;;19.42;100.00;102823.69;2617596;31;20279;-67
2021/09/01 13:12:23;;;;;;;5.97;2.15;;;;;;;19.37;100.00;102821.38;2617274;36;20042;-70
2021/09/01 13:14:51;;;;;;;9.90;2.53;;;;;;;19.55;100.00;102826.09;2617129;31;20073;-70
2021/09/01 13:17:19;;;;;;;5.13;2.17;;;;;;;19.62;100.00;102819.03;2615777;36;20399;-67
2021/09/01 13:19:47;;;;;;;5.80;2.70;;;;;;;19.83;100.00;102820.72;2617492;36;20567;-67
2021/09/01 13:22:16;;;;;;;5.68;2.30;;;;;;;19.66;100.00;102811.41;2616606;36;20574;-68
2021/09/01 13:24:44;;;;;;;12.15;2.95;;;;;;;19.68;100.00;102821.16;2616238;36;20035;-68
2021/09/01 13:27:15;;;;;;;6.30;2.25;;;;;;;20.08;100.00;102819.16;2617093;36;20030;-70
2021/09/01 13:29:43;;;;;;;7.93;2.42;;;;;;;20.15;100.00;102819.44;2617394;36;20173;-68
2021/09/01 13:32:12;;;;;;;6.32;2.25;;;;;;;20.31;100.00;102817.75;2617194;36;20110;-67
2021/09/01 13:34:40;;;;;;;7.93;2.85;;;;;;;20.09;100.00;102821.75;2616227;36;20068;-69
2021/09/01 13:37:08;;;;;;;5.47;2.38;;;;;;;20.11;100.00;102816.13;2616277;36;21064;-70
2021/09/01 13:39:36;;;;;;;5.30;2.10;;;;;;;19.77;100.00;102816.66;2617354;36;20555;-66
2021/09/01 13:42:05;;;;;;;4.20;2.20;;;;;;;19.86;100.00;102820.41;2616954;36;20030;-70
2021/09/01 13:44:36;;;;;;;4.50;2.40;;;;;;;19.73;100.00;102826.19;2616816;36;20282;-66
2021/09/01 13:47:05;;;;;;;6.85;2.78;;;;;;;19.49;100.00;102811.13;2613218;36;20209;-66
2021/09/01 13:49:34;;;;;;;15.02;2.80;;;;;;;19.38;100.00;102814.06;2614808;36;20022;-67
2021/09/01 13:52:03;;;;;;;7.07;2.53;;;;;;;19.05;100.00;102822.56;2616992;36;20054;-66
2021/09/01 13:54:33;;;;;;;7.88;2.40;;;;;;;19.13;100.00;102824.56;2617036;36;20110;-69
2021/09/01 13:57:02;;;;;;;6.05;2.33;;;;;;;19.32;100.00;102812.78;2614924;36;20138;-65
2021/09/01 13:59:31;;;;;;;;;;;;;;;19.31;100.00;102811.03;2615155;36;20391;-71
2021/09/01 14:02:02;;;;;;;4.32;2.20;;;;;;;19.46;100.00;102808.72;2615324;36;19966;-67
2021/09/01 14:04:30;;;;;;;8.13;2.22;;;;;;;19.52;100.00;102816.34;2615437;36;20122;-66
2021/09/01 14:06:58;;;;;;;10.20;3.20;;;;;;;19.34;100.00;102812.63;2617135;36;20046;-69
2021/09/01 14:09:27;;;;;;;8.73;3.30;;;;;;;19.29;100.00;102820.38;2615696;36;20125;-67
2021/09/01 14:11:55;;;;;;;8.77;3.08;;;;;;;19.25;100.00;102812.47;2617363;36;20423;-66
2021/09/01 14:14:23;;;;;;;10.80;3.40;;;;;;;19.10;100.00;102816.69;2616937;36;20078;-68
2021/09/01 14:16:52;;;;;;;10.50;3.30;;;;;;;18.96;100.00;102806.19;2617380;36;20374;-66
2021/09/01 14:19:23;;;;;;;;;;;;;;;19.15;100.00;102811.63;2615882;36;20038;-68
2021/09/01 14:21:51;;;;;;;8.02;3.65;;;;;;;19.22;100.00;102818.25;2616854;36;20063;-70
2021/09/01 14:24:19;;;;;;;9.70;3.90;;;;;;;19.40;100.00;102809.31;2616875;36;20596;-71
2021/09/01 14:26:47;;;;;;;8.17;3.90;;;;;;;19.40;100.00;102809.31;2616982;36;20832;-71
2021/09/01 14:29:15;;;;;;;8.95;3.83;;;;;;;19.37;100.00;102812.34;2615961;36;20621;-67
2021/09/01 14:31:44;;;;;;;10.65;4.43;;;;;;;19.22;100.00;102811.94;2615612;36;20126;-67
2021/09/01 14:34:12;;;;;;;9.17;4.23;;;;;;;19.40;100.00;102803.84;2617283;36;20246;-70
2021/09/01 14:36:43;;;;;;;9.37;4.20;;;;;;;19.31;100.00;102812.94;2617248;36;20350;-67
2021/09/01 14:39:11;;;;;;;7.88;3.50;;;;;;;19.41;100.00;102800.97;2617804;31;20578;-70
2021/09/01 14:41:39;;;;;;;6.87;3.80;;;;;;;19.43;100.00;102804.44;2617107;36;20529;-67
2021/09/01 14:44:07;;;;;;;8.83;4.17;;;;;;;19.39;100.00;102797.53;2617555;31;20768;-70
2021/09/01 14:46:35;;;;;;;5.95;4.03;;;;;;;19.24;100.00;102808.06;2616069;36;20022;-68
2021/09/01 14:49:04;;;;;;;10.43;4.30;;;;;;;19.31;100.00;102796.53;2615280;36;20121;-66
2021/09/01 14:51:32;;;;;;;10.32;4.63;;;;;;;19.11;100.00;102804.78;2611839;36;20295;-67
2021/09/01 14:54:03;;;;;;;8.20;4.25;;;;;;;18.90;100.00;102813.97;2616682;36;20542;-69